createdAt,value
2022-09-12T00:00:23.870Z,16.06
2022-09-12T00:02:53.129Z,16.08
2022-09-12T00:05:21.116Z,16.05
2022-09-12T00:07:49.345Z,16.04
2022-09-12T00:10:18.650Z,16.04
2022-09-12T00:12:46.564Z,16.04
2022-09-12T00:15:14.518Z,16.02
2022-09-12T00:17:42.375Z,16.01
2022-09-12T00:20:11.227Z,16.00
2022-09-12T00:22:39.910Z,16.00
2022-09-12T00:25:08.846Z,16.02
2022-09-12T00:27:38.022Z,15.99
2022-09-12T00:30:06.398Z,16.02
2022-09-12T00:32:34.902Z,15.99
2022-09-12T00:35:03.366Z,16.00
2022-09-12T00:37:31.270Z,15.98
2022-09-12T00:39:59.158Z,15.99
2022-09-12T00:42:27.009Z,16.00
2022-09-12T00:44:56.191Z,16.02
2022-09-12T00:47:26.211Z,16.02
2022-09-12T00:49:57.632Z,16.02
2022-09-12T00:52:28.676Z,16.05
2022-09-12T00:54:58.385Z,16.06
2022-09-12T00:57:29.045Z,16.06
2022-09-12T01:00:00.587Z,16.06
2022-09-12T01:02:28.686Z,16.11
2022-09-12T01:04:56.741Z,16.12
2022-09-12T01:07:24.682Z,16.13
2022-09-12T01:09:52.645Z,16.17
2022-09-12T01:12:20.491Z,16.19
2022-09-12T01:14:48.256Z,16.22
2022-09-12T01:17:17.715Z,16.24
2022-09-12T01:19:58.413Z,16.30
2022-09-12T01:22:37.814Z,16.30
2022-09-12T01:25:12.582Z,16.31
2022-09-12T01:27:49.786Z,16.36
2022-09-12T01:30:24.049Z,16.38
2022-09-12T01:33:07.158Z,16.39
2022-09-12T01:35:41.387Z,16.43
2022-09-12T01:38:12.395Z,16.46
2022-09-12T01:40:43.941Z,16.48
2022-09-12T01:43:21.236Z,16.50
2022-09-12T01:45:53.686Z,16.52
2022-09-12T01:48:23.827Z,16.53
2022-09-12T01:50:53.935Z,16.56
2022-09-12T01:53:24.758Z,16.59
2022-09-12T01:55:55.626Z,16.63
2022-09-12T01:58:26.846Z,16.66
2022-09-12T02:00:59.685Z,16.68
2022-09-12T02:03:30.332Z,16.70
2022-09-12T02:06:01.927Z,16.72
2022-09-12T02:08:32.509Z,16.75
2022-09-12T02:11:01.585Z,16.74
2022-09-12T02:13:32.668Z,16.79
2022-09-12T02:16:05.614Z,16.81
2022-09-12T02:18:35.264Z,16.82
2022-09-12T02:21:06.359Z,16.86
2022-09-12T02:23:35.875Z,16.89
2022-09-12T02:26:07.720Z,16.88
2022-09-12T02:28:37.262Z,16.89
2022-09-12T02:31:11.245Z,16.90
2022-09-12T02:33:43.406Z,16.91
2022-09-12T02:36:14.386Z,16.96
2022-09-12T02:38:45.329Z,16.96
2022-09-12T02:41:15.323Z,16.96
2022-09-12T02:43:43.168Z,16.96
2022-09-12T02:46:16.883Z,16.96
2022-09-12T02:48:44.909Z,16.94
2022-09-12T02:51:13.157Z,16.98
2022-09-12T02:53:41.684Z,16.94
2022-09-12T02:56:12.278Z,16.92
2022-09-12T02:58:40.180Z,16.91
2022-09-12T03:01:13.288Z,16.89
2022-09-12T03:03:55.796Z,16.93
2022-09-12T03:06:31.538Z,16.93
2022-09-12T03:09:01.928Z,16.91
2022-09-12T03:11:36.656Z,16.92
2022-09-12T03:14:11.486Z,16.93
2022-09-12T03:16:43.607Z,16.91
2022-09-12T03:19:19.393Z,16.91
2022-09-12T03:21:53.010Z,16.92
2022-09-12T03:24:23.276Z,16.97
2022-09-12T03:26:55.603Z,16.94
2022-09-12T03:29:25.152Z,16.95
2022-09-12T03:31:53.851Z,16.96
2022-09-12T03:34:23.720Z,16.96
2022-09-12T03:36:51.458Z,16.98
2022-09-12T03:39:20.412Z,17.04
2022-09-12T03:41:48.329Z,17.05
2022-09-12T03:44:16.179Z,17.12
2022-09-12T03:46:43.972Z,17.23
2022-09-12T03:49:11.986Z,17.25
2022-09-12T03:51:41.254Z,17.24
2022-09-12T03:54:09.037Z,17.23
2022-09-12T03:56:37.072Z,17.24
2022-09-12T03:59:06.330Z,17.30
2022-09-12T04:01:34.919Z,17.35
2022-09-12T04:04:02.914Z,17.37
2022-09-12T04:06:31.228Z,17.36
2022-09-12T04:09:00.378Z,17.40
2022-09-12T04:11:28.204Z,17.41
2022-09-12T04:13:56.001Z,17.46
2022-09-12T04:16:23.949Z,17.43
2022-09-12T04:18:51.863Z,17.43
2022-09-12T04:21:21.808Z,17.42
2022-09-12T04:23:49.646Z,17.46
2022-09-12T04:26:19.499Z,17.46
2022-09-12T04:28:47.910Z,17.49
2022-09-12T04:31:17.851Z,17.48
2022-09-12T04:33:46.019Z,17.45
2022-09-12T04:36:16.875Z,17.44
2022-09-12T04:38:45.458Z,17.47
2022-09-12T04:41:13.525Z,17.41
2022-09-12T04:43:43.175Z,17.42
2022-09-12T04:46:11.904Z,17.39
2022-09-12T04:48:39.800Z,17.38
2022-09-12T04:51:08.156Z,17.40
2022-09-12T04:53:37.020Z,17.36
2022-09-12T04:56:05.089Z,17.38
2022-09-12T04:58:33.285Z,17.34
2022-09-12T05:01:06.423Z,17.36
2022-09-12T05:03:34.264Z,17.35
2022-09-12T05:06:03.574Z,17.33
2022-09-12T05:08:31.599Z,17.32
2022-09-12T05:11:04.735Z,17.30
2022-09-12T05:13:33.108Z,17.28
2022-09-12T05:16:02.258Z,17.27
2022-09-12T05:18:32.437Z,17.27
2022-09-12T05:21:00.852Z,17.24
2022-09-12T05:23:28.891Z,17.25
2022-09-12T05:25:57.817Z,17.22
2022-09-12T05:28:26.501Z,17.24
2022-09-12T05:31:00.955Z,17.25
2022-09-12T05:33:28.964Z,17.21
2022-09-12T05:35:58.173Z,17.24
2022-09-12T05:38:26.222Z,17.25
2022-09-12T05:40:54.308Z,17.26
2022-09-12T05:43:22.081Z,17.26
2022-09-12T05:45:49.980Z,17.24
2022-09-12T05:48:18.004Z,17.24
2022-09-12T05:50:46.299Z,17.33
2022-09-12T05:53:15.751Z,17.30
2022-09-12T05:55:44.102Z,17.31
2022-09-12T05:58:11.936Z,17.30
2022-09-12T06:00:40.140Z,17.34
2022-09-12T06:03:08.372Z,17.32
2022-09-12T06:05:36.153Z,17.34
2022-09-12T06:08:04.059Z,17.36
2022-09-12T06:10:35.315Z,17.36
2022-09-12T06:13:04.423Z,17.38
2022-09-12T06:15:32.230Z,17.40
2022-09-12T06:18:00.180Z,17.43
2022-09-12T06:20:28.072Z,17.45
2022-09-12T06:22:55.928Z,17.48
2022-09-12T06:25:23.795Z,17.52
2022-09-12T06:27:54.542Z,17.54
2022-09-12T06:30:25.514Z,17.59
2022-09-12T06:32:53.624Z,17.66
2022-09-12T06:35:21.723Z,17.71
2022-09-12T06:37:49.583Z,17.78
2022-09-12T06:40:17.535Z,17.87
2022-09-12T06:42:45.442Z,17.93
2022-09-12T06:45:28.693Z,17.97
2022-09-12T06:47:56.737Z,18.03
2022-09-12T06:50:24.942Z,18.05
2022-09-12T06:52:52.781Z,18.13
2022-09-12T06:55:23.571Z,18.17
2022-09-12T06:57:55.669Z,18.21
2022-09-12T07:00:23.455Z,18.25
2022-09-12T07:02:56.564Z,18.30
2022-09-12T07:05:24.406Z,18.36
2022-09-12T07:07:52.191Z,18.38
2022-09-12T07:10:22.452Z,18.42
2022-09-12T07:12:50.446Z,18.46
2022-09-12T07:15:18.385Z,18.51
2022-09-12T07:17:46.301Z,18.57
2022-09-12T07:20:16.213Z,18.63
2022-09-12T07:22:43.986Z,18.68
2022-09-12T07:25:11.829Z,18.79
2022-09-12T07:27:39.828Z,18.83
2022-09-12T07:30:08.579Z,18.88
2022-09-12T07:32:36.750Z,18.90
2022-09-12T07:35:04.726Z,18.98
2022-09-12T07:37:33.953Z,19.01
2022-09-12T07:40:02.316Z,19.04
2022-09-12T07:42:31.005Z,19.09
2022-09-12T07:44:58.867Z,19.11
2022-09-12T07:47:26.950Z,19.17
2022-09-12T07:49:54.807Z,19.18
2022-09-12T07:52:22.601Z,19.18
2022-09-12T07:54:51.759Z,19.20
2022-09-12T07:57:19.660Z,19.25
2022-09-12T07:59:52.924Z,19.28
2022-09-12T08:02:21.576Z,19.29
2022-09-12T08:04:49.485Z,19.33
2022-09-12T08:07:18.378Z,19.37
2022-09-12T08:09:46.259Z,19.38
2022-09-12T08:12:16.309Z,19.43
2022-09-12T08:14:44.625Z,19.49
2022-09-12T08:17:12.399Z,19.49
2022-09-12T08:19:40.445Z,19.51
2022-09-12T08:22:08.316Z,19.50
2022-09-12T08:24:36.261Z,19.55
2022-09-12T08:27:04.200Z,19.69
2022-09-12T08:32:17.571Z,20.22
2022-09-12T08:34:46.323Z,20.33
2022-09-12T08:37:14.880Z,20.47
2022-09-12T08:39:58.474Z,20.56
2022-09-12T08:42:34.858Z,20.64
2022-09-12T08:45:17.491Z,20.73
2022-09-12T08:47:47.789Z,20.80
2022-09-12T08:50:19.844Z,20.80
2022-09-12T08:52:52.019Z,20.74
2022-09-12T08:55:28.653Z,20.83
2022-09-12T08:57:56.491Z,20.79
2022-09-12T09:00:29.684Z,20.83
2022-09-12T09:03:07.542Z,20.84
2022-09-12T09:05:43.174Z,21.14
2022-09-12T09:08:35.523Z,21.30
2022-09-12T09:11:09.844Z,21.55
2022-09-12T09:14:05.204Z,21.78
2022-09-12T09:16:37.196Z,22.10
2022-09-12T09:19:06.571Z,22.32
2022-09-12T09:21:37.608Z,22.54
2022-09-12T09:24:06.927Z,22.69
2022-09-12T09:26:42.603Z,22.86
2022-09-12T09:29:18.967Z,22.81
2022-09-12T09:31:50.781Z,22.81
2022-09-12T09:34:21.878Z,22.86
2022-09-12T09:36:53.613Z,22.82
2022-09-12T09:39:28.751Z,22.74
2022-09-12T09:42:03.045Z,22.75
2022-09-12T09:44:43.814Z,22.65
2022-09-12T09:47:16.476Z,22.69
2022-09-12T09:49:44.996Z,22.66
2022-09-12T09:52:18.749Z,22.56
2022-09-12T09:54:53.295Z,22.46
2022-09-12T09:57:52.451Z,22.37
2022-09-12T10:00:45.667Z,22.38
2022-09-12T10:04:01.796Z,22.72
2022-09-12T10:06:54.861Z,22.83
2022-09-12T10:09:34.336Z,22.96
2022-09-12T10:12:21.671Z,23.17
2022-09-12T10:14:58.974Z,23.08
2022-09-12T10:17:34.616Z,23.19
2022-09-12T10:20:27.723Z,23.29
2022-09-12T10:22:56.033Z,23.44
2022-09-12T10:25:26.218Z,23.51
2022-09-12T10:27:55.635Z,23.41
2022-09-12T10:30:25.230Z,23.65
2022-09-12T10:32:54.193Z,23.85
2022-09-12T10:35:24.081Z,23.98
2022-09-12T10:37:54.729Z,23.96
2022-09-12T10:40:24.044Z,24.01
2022-09-12T10:42:53.047Z,24.01
2022-09-12T10:45:22.590Z,24.07
2022-09-12T10:47:50.679Z,24.14
2022-09-12T10:50:22.982Z,24.31
2022-09-12T10:52:55.251Z,24.20
2022-09-12T10:55:26.688Z,24.37
2022-09-12T10:58:07.952Z,24.41
2022-09-12T11:00:41.948Z,24.47
2022-09-12T11:03:16.487Z,24.44
2022-09-12T11:06:07.773Z,24.44
2022-09-12T11:08:55.802Z,24.53
2022-09-12T11:12:12.778Z,24.42
2022-09-12T11:14:50.875Z,24.43
2022-09-12T11:17:26.533Z,24.27
2022-09-12T11:20:11.655Z,24.43
2022-09-12T11:22:54.060Z,24.58
2022-09-12T11:25:32.865Z,24.68
2022-09-12T11:28:06.333Z,24.67
2022-09-12T11:30:38.755Z,24.77
2022-09-12T11:33:21.224Z,24.64
2022-09-12T11:35:57.720Z,24.89
2022-09-12T11:38:46.360Z,24.82
2022-09-12T11:41:20.134Z,24.88
2022-09-12T11:43:49.785Z,24.91
2022-09-12T11:46:21.356Z,25.16
2022-09-12T11:48:52.683Z,25.10
2022-09-12T11:51:21.661Z,25.00
2022-09-12T11:53:58.099Z,25.17
2022-09-12T11:56:27.452Z,25.19
2022-09-12T11:58:58.694Z,25.55
2022-09-12T12:01:29.094Z,25.37
2022-09-12T12:03:58.195Z,25.35
2022-09-12T12:06:31.668Z,25.18
2022-09-12T12:08:59.676Z,25.10
2022-09-12T12:11:30.622Z,25.02
2022-09-12T12:14:00.269Z,25.02
2022-09-12T12:16:29.819Z,25.09
2022-09-12T12:18:58.788Z,25.58
2022-09-12T12:21:36.830Z,25.75
2022-09-12T12:24:24.146Z,25.90
2022-09-12T12:29:46.059Z,26.09
2022-09-12T12:32:24.077Z,26.22
2022-09-12T12:34:51.939Z,26.05
2022-09-12T12:37:39.825Z,26.14
2022-09-12T12:40:10.116Z,26.26
2022-09-12T12:43:08.750Z,26.27
2022-09-12T12:46:08.975Z,26.35
2022-09-12T12:48:54.049Z,26.22
2022-09-12T12:51:49.441Z,26.06
2022-09-12T12:54:50.680Z,25.93
2022-09-12T12:57:20.546Z,25.93
2022-09-12T12:59:50.141Z,25.82
2022-09-12T13:02:23.636Z,25.95
2022-09-12T13:04:54.295Z,25.84
2022-09-12T13:07:32.384Z,25.74
2022-09-12T13:10:05.739Z,25.89
2022-09-12T13:12:51.565Z,25.89
2022-09-12T13:15:43.451Z,25.75
2022-09-12T13:18:13.253Z,25.56
2022-09-12T13:20:48.245Z,25.51
2022-09-12T13:23:26.178Z,25.47
2022-09-12T13:26:06.461Z,25.51
2022-09-12T13:28:39.837Z,25.53
2022-09-12T13:31:13.062Z,25.62
2022-09-12T13:33:43.415Z,25.50
2022-09-12T13:36:31.633Z,25.48
2022-09-12T13:39:07.132Z,25.45
2022-09-12T13:41:45.640Z,25.48
2022-09-12T13:44:15.954Z,25.45
2022-09-12T13:46:44.302Z,25.49
2022-09-12T13:49:17.578Z,25.47
2022-09-12T13:51:46.933Z,25.62
2022-09-12T13:54:22.534Z,25.56
2022-09-12T13:56:52.288Z,25.51
2022-09-12T13:59:20.078Z,25.50
2022-09-12T14:01:48.422Z,25.54
2022-09-12T14:04:35.960Z,25.44
2022-09-12T14:07:11.980Z,25.43
2022-09-12T14:09:41.674Z,25.47
2022-09-12T14:12:22.057Z,25.43
2022-09-12T14:14:51.779Z,25.43
2022-09-12T14:17:23.810Z,25.41
2022-09-12T14:19:52.712Z,25.33
2022-09-12T14:22:21.878Z,25.31
2022-09-12T14:24:51.672Z,25.31
2022-09-12T14:27:21.750Z,25.30
2022-09-12T14:29:53.950Z,25.20
2022-09-12T14:32:23.988Z,25.17
2022-09-12T14:35:08.462Z,25.12
2022-09-12T14:37:37.726Z,25.15
2022-09-12T14:40:20.085Z,25.21
2022-09-12T14:43:39.966Z,25.29
2022-09-12T14:46:19.667Z,25.20
2022-09-12T14:48:48.686Z,25.08
2022-09-12T14:51:19.555Z,25.19
2022-09-12T14:53:50.383Z,25.18
2022-09-12T14:56:18.423Z,25.18
2022-09-12T14:58:46.341Z,25.07
2022-09-12T15:01:27.241Z,25.11
2022-09-12T15:03:56.701Z,25.09
2022-09-12T15:06:28.012Z,24.98
2022-09-12T15:08:59.054Z,24.91
2022-09-12T15:11:27.033Z,24.93
2022-09-12T15:13:55.077Z,24.95
2022-09-12T15:16:23.038Z,24.92
2022-09-12T15:18:51.090Z,24.87
2022-09-12T15:21:20.497Z,24.77
2022-09-12T15:23:49.020Z,24.86
2022-09-12T15:26:19.043Z,24.89
2022-09-12T15:29:00.419Z,24.86
2022-09-12T15:31:30.220Z,24.82
2022-09-12T15:34:05.641Z,24.86
2022-09-12T15:36:35.655Z,24.79
2022-09-12T15:39:23.977Z,24.75
2022-09-12T15:41:54.169Z,24.80
2022-09-12T15:44:23.685Z,24.76
2022-09-12T15:46:51.549Z,24.70
2022-09-12T15:49:19.412Z,24.65
2022-09-12T15:52:01.091Z,24.61
2022-09-12T15:54:28.980Z,24.62
2022-09-12T15:56:58.229Z,24.57
2022-09-12T15:59:26.167Z,24.50
2022-09-12T16:01:54.253Z,24.50
2022-09-12T16:04:28.560Z,24.51
2022-09-12T16:06:57.076Z,24.39
2022-09-12T16:09:27.759Z,24.37
2022-09-12T16:11:55.668Z,24.30
2022-09-12T16:14:24.915Z,24.28
2022-09-12T16:16:53.782Z,24.25
2022-09-12T16:19:22.163Z,24.24
2022-09-12T16:21:50.453Z,24.19
2022-09-12T16:24:18.672Z,24.27
2022-09-12T16:26:46.668Z,24.24
2022-09-12T16:29:14.930Z,24.22
2022-09-12T16:31:44.138Z,24.18
2022-09-12T16:34:12.305Z,24.18
2022-09-12T16:36:40.273Z,24.18
2022-09-12T16:39:08.173Z,24.13
2022-09-12T16:41:35.990Z,24.14
2022-09-12T16:44:04.118Z,24.17
2022-09-12T16:46:32.129Z,24.20
2022-09-12T16:49:01.437Z,24.16
2022-09-12T16:51:31.864Z,24.11
2022-09-12T16:57:16.881Z,24.03
2022-09-12T16:59:47.966Z,23.97
2022-09-12T17:02:16.295Z,23.93
2022-09-12T17:04:45.466Z,23.85
2022-09-12T17:07:13.310Z,23.87
2022-09-12T17:09:44.144Z,23.75
2022-09-12T17:12:14.198Z,23.68
2022-09-12T17:14:42.184Z,23.68
2022-09-12T17:17:10.231Z,23.66
2022-09-12T17:19:38.098Z,23.57
2022-09-12T17:22:07.398Z,23.46
2022-09-12T17:24:35.847Z,23.47
2022-09-12T17:27:03.724Z,23.39
2022-09-12T17:29:31.544Z,23.36
2022-09-12T17:32:02.623Z,23.32
2022-09-12T17:34:37.294Z,23.31
2022-09-12T17:37:07.889Z,23.28
2022-09-12T17:39:35.770Z,23.28
2022-09-12T17:42:08.069Z,23.23
2022-09-12T17:44:37.473Z,23.23
2022-09-12T17:47:10.988Z,23.21
2022-09-12T17:50:09.202Z,23.20
2022-09-12T17:52:46.313Z,23.16
2022-09-12T17:55:16.979Z,23.07
2022-09-12T17:57:45.418Z,23.04
2022-09-12T18:00:13.619Z,23.02
2022-09-12T18:02:40.577Z,22.98
2022-09-12T18:05:10.323Z,22.90
2022-09-12T18:08:01.775Z,22.88
2022-09-12T18:10:33.121Z,22.85
2022-09-12T18:13:01.307Z,22.82
2022-09-12T18:15:29.178Z,22.81
2022-09-12T18:21:01.585Z,22.71
2022-09-12T18:23:31.795Z,22.68
2022-09-12T18:26:28.769Z,22.66
2022-09-12T18:28:57.088Z,22.66
2022-09-12T18:31:25.899Z,22.61
2022-09-12T18:33:53.769Z,22.60
2022-09-12T18:36:22.901Z,22.56
2022-09-12T18:38:52.264Z,22.53
2022-09-12T18:41:21.967Z,22.49
2022-09-12T18:43:50.190Z,22.45
2022-09-12T18:46:19.102Z,22.38
2022-09-12T18:48:47.507Z,22.38
2022-09-12T18:51:16.302Z,22.37
2022-09-12T18:55:32.127Z,22.34
2022-09-12T18:58:00.171Z,22.33
2022-09-12T19:00:28.619Z,22.30
2022-09-12T19:02:56.630Z,22.23
2022-09-12T19:05:24.642Z,22.21
2022-09-12T19:07:52.716Z,22.20
2022-09-12T19:10:20.760Z,22.14
2022-09-12T19:12:50.135Z,22.12
2022-09-12T19:15:18.307Z,22.07
2022-09-12T19:17:46.325Z,22.05
2022-09-12T19:20:14.402Z,22.03
2022-09-12T19:22:42.448Z,21.98
2022-09-12T19:25:10.597Z,21.92
2022-09-12T19:27:38.944Z,21.95
2022-09-12T19:30:09.958Z,21.94
2022-09-12T19:32:38.105Z,21.88
2022-09-12T19:35:06.869Z,21.86
2022-09-12T19:37:35.120Z,21.88
2022-09-12T19:40:04.410Z,21.82
2022-09-12T19:42:32.595Z,21.80
2022-09-12T19:45:00.588Z,21.78
2022-09-12T19:47:30.067Z,21.77
2022-09-12T19:49:58.147Z,21.74
2022-09-12T19:52:26.190Z,21.72
2022-09-12T19:54:54.409Z,21.71
2022-09-12T19:57:22.481Z,21.71
2022-09-12T19:59:50.558Z,21.69
2022-09-12T20:02:18.675Z,21.65
2022-09-12T20:04:48.492Z,21.64
2022-09-12T20:07:16.495Z,21.62
2022-09-12T20:09:44.588Z,21.61
2022-09-12T20:12:14.433Z,21.58
2022-09-12T20:14:42.397Z,21.56
2022-09-12T20:17:10.590Z,21.55
2022-09-12T20:19:38.822Z,21.52
2022-09-12T20:22:08.192Z,21.49
2022-09-12T20:24:37.445Z,21.47
2022-09-12T20:27:05.564Z,21.44
2022-09-12T20:29:33.523Z,21.41
2022-09-12T20:32:01.796Z,21.39
2022-09-12T20:34:29.931Z,21.37
2022-09-12T20:36:58.246Z,21.37
2022-09-12T20:39:27.726Z,21.33
2022-09-12T20:41:55.782Z,21.30
2022-09-12T20:44:23.804Z,21.30
2022-09-12T20:46:52.417Z,21.28
2022-09-12T20:49:20.425Z,21.25
2022-09-12T20:51:48.728Z,21.22
2022-09-12T20:54:17.178Z,21.21
2022-09-12T20:56:46.766Z,21.18
2022-09-12T20:59:14.758Z,21.15
2022-09-12T21:01:43.987Z,21.12
2022-09-12T21:04:15.165Z,21.11
2022-09-12T21:06:43.522Z,21.08
2022-09-12T21:09:11.606Z,21.07
2022-09-12T21:11:39.644Z,21.08
2022-09-12T21:14:09.002Z,21.06
2022-09-12T21:16:38.635Z,21.00
2022-09-12T21:19:07.567Z,20.99
2022-09-12T21:21:35.655Z,20.98
2022-09-12T21:24:04.311Z,20.95
2022-09-12T21:26:33.022Z,20.93
2022-09-12T21:29:01.103Z,20.90
2022-09-12T21:31:30.914Z,20.86
2022-09-12T21:33:58.945Z,20.85
2022-09-12T21:36:27.024Z,20.84
2022-09-12T21:38:58.722Z,20.84
2022-09-12T21:41:26.828Z,20.81
2022-09-12T21:43:54.761Z,20.80
2022-09-12T21:46:22.796Z,20.76
2022-09-12T21:48:52.156Z,20.75
2022-09-12T21:51:20.141Z,20.74
2022-09-12T21:53:48.196Z,20.71
2022-09-12T21:56:16.346Z,20.70
2022-09-12T21:58:44.431Z,20.68
2022-09-12T22:01:13.121Z,20.66
2022-09-12T22:03:44.313Z,20.65
2022-09-12T22:06:14.870Z,20.65
2022-09-12T22:08:43.055Z,20.64
2022-09-12T22:11:11.610Z,20.61
2022-09-12T22:13:42.818Z,20.60
2022-09-12T22:16:11.448Z,20.58
2022-09-12T22:18:40.092Z,20.56
2022-09-12T22:21:12.351Z,20.56
2022-09-12T22:23:59.065Z,20.55
2022-09-12T22:26:28.218Z,20.51
2022-09-12T22:28:56.281Z,20.49
2022-09-12T22:31:24.489Z,20.47
2022-09-12T22:33:52.676Z,20.48
2022-09-12T22:36:20.732Z,20.46
2022-09-12T22:38:50.974Z,20.44
2022-09-12T22:41:19.111Z,20.44
2022-09-12T22:43:47.060Z,20.39
2022-09-12T22:46:15.209Z,20.37
2022-09-12T22:48:43.726Z,20.36
2022-09-12T22:51:12.405Z,20.34
2022-09-12T22:53:40.773Z,20.32
2022-09-12T22:56:10.612Z,20.29
2022-09-12T22:58:38.844Z,20.25
2022-09-12T23:01:07.439Z,20.23
2022-09-12T23:03:36.431Z,20.21
2022-09-12T23:06:05.622Z,20.14
2022-09-12T23:08:36.218Z,20.10
2022-09-12T23:11:05.540Z,20.08
2022-09-12T23:13:36.316Z,20.07
2022-09-12T23:16:05.355Z,20.04
2022-09-12T23:18:35.358Z,20.01
2022-09-12T23:21:06.630Z,19.96
2022-09-12T23:23:34.802Z,19.91
2022-09-12T23:26:07.898Z,19.90
2022-09-12T23:28:39.128Z,19.87
2022-09-12T23:31:09.522Z,19.82
2022-09-12T23:33:37.978Z,19.82
2022-09-12T23:36:08.494Z,19.79
2022-09-12T23:38:37.126Z,19.76
2022-09-12T23:41:05.756Z,19.75
2022-09-12T23:43:34.109Z,19.73
2022-09-12T23:46:04.689Z,19.72
2022-09-12T23:48:33.961Z,19.69
2022-09-12T23:51:03.087Z,19.69
2022-09-12T23:53:31.147Z,19.70
2022-09-12T23:55:59.450Z,19.71
2022-09-12T23:58:27.416Z,19.68
